TimeCST,TemperatureF,Dew PointF,Humidity,Sea Level PressureIn,VisibilityMPH,Wind Direction,Wind SpeedMPH,Gust SpeedMPH,PrecipitationIn,Events,Conditions,WindDirDegrees,DateUTC
12:15 AM,55.4,41.0,58,30.10,-9999.0,NE,18.4,27.6,N/A,,Overcast,40,2014-01-28 06:15:00
12:35 AM,55.4,39.2,54,30.09,10.0,NNE,23.0,-,N/A,,Overcast,30,2014-01-28 06:35:00
12:55 AM,53.6,39.2,58,30.10,10.0,NE,20.7,28.8,N/A,,Overcast,40,2014-01-28 06:55:00
1:15 AM,51.8,39.2,62,30.10,10.0,North,24.2,-,N/A,,Overcast,360,2014-01-28 07:15:00
1:35 AM,50.0,37.4,62,30.10,10.0,North,25.3,-,N/A,,Overcast,10,2014-01-28 07:35:00
1:55 AM,50.0,37.4,62,30.09,10.0,North,23.0,29.9,N/A,,Overcast,10,2014-01-28 07:55:00
2:15 AM,50.0,37.4,62,30.09,10.0,North,23.0,28.8,N/A,,Overcast,10,2014-01-28 08:15:00
2:35 AM,50.0,37.4,62,30.09,10.0,NNE,21.9,27.6,N/A,,Overcast,20,2014-01-28 08:35:00
2:55 AM,50.0,37.4,62,30.09,10.0,North,24.2,-,N/A,,Overcast,10,2014-01-28 08:55:00
3:15 AM,50.0,37.4,62,30.09,10.0,NNE,24.2,-,N/A,,Overcast,20,2014-01-28 09:15:00
3:35 AM,50.0,37.4,62,30.09,10.0,North,24.2,-,N/A,,Overcast,10,2014-01-28 09:35:00
3:55 AM,50.0,39.2,66,30.09,10.0,NNE,24.2,29.9,N/A,,Overcast,20,2014-01-28 09:55:00
4:15 AM,50.0,37.4,62,30.10,10.0,North,21.9,29.9,N/A,,Overcast,10,2014-01-28 10:15:00
4:35 AM,48.2,35.6,62,30.11,10.0,North,25.3,-,N/A,,Overcast,10,2014-01-28 10:35:00
4:55 AM,48.2,35.6,62,30.12,10.0,North,27.6,-,N/A,,Overcast,10,2014-01-28 10:55:00
5:15 AM,48.2,35.6,62,30.12,10.0,NNE,27.6,-,N/A,,Overcast,20,2014-01-28 11:15:00
5:35 AM,48.2,33.8,58,30.13,10.0,NNE,27.6,34.5,N/A,,Overcast,20,2014-01-28 11:35:00
5:55 AM,48.2,35.6,62,30.13,10.0,NNE,27.6,34.5,N/A,,Overcast,20,2014-01-28 11:55:00
6:15 AM,48.2,32.0,54,30.15,10.0,NNE,23.0,36.8,N/A,,Overcast,30,2014-01-28 12:15:00
6:35 AM,48.2,32.0,54,30.17,10.0,NNE,28.8,-,N/A,,Overcast,30,2014-01-28 12:35:00
6:55 AM,48.2,32.0,54,30.19,10.0,NNE,28.8,-,N/A,,Overcast,30,2014-01-28 12:55:00
7:15 AM,48.2,30.2,50,30.18,10.0,NNE,31.1,36.8,N/A,,Overcast,20,2014-01-28 13:15:00
7:35 AM,46.4,30.2,53,30.19,10.0,NE,25.3,36.8,N/A,,Overcast,40,2014-01-28 13:35:00
7:55 AM,46.4,30.2,53,30.20,10.0,NNE,29.9,-,N/A,,Overcast,20,2014-01-28 13:55:00
8:15 AM,46.4,28.4,50,30.22,10.0,NNE,26.5,33.4,N/A,,Overcast,30,2014-01-28 14:15:00
8:35 AM,46.4,30.2,53,30.22,10.0,NNE,26.5,35.7,N/A,,Overcast,30,2014-01-28 14:35:00
8:55 AM,46.4,30.2,53,30.21,10.0,NNE,33.4,-,N/A,,Overcast,20,2014-01-28 14:55:00
9:15 AM,44.6,28.4,53,30.21,10.0,NNE,32.2,39.1,N/A,,Overcast,20,2014-01-28 15:15:00
9:35 AM,44.6,28.4,53,30.23,10.0,NNE,31.1,38.0,N/A,,Overcast,20,2014-01-28 15:35:00
9:55 AM,42.8,26.6,53,30.26,10.0,NNE,31.1,38.0,N/A,,Overcast,30,2014-01-28 15:55:00
10:15 AM,42.8,28.4,57,30.27,10.0,NNE,26.5,35.7,N/A,,Overcast,30,2014-01-28 16:15:00
10:35 AM,41.0,28.4,61,30.29,10.0,NNE,27.6,40.3,N/A,,Overcast,30,2014-01-28 16:35:00
10:55 AM,41.0,30.2,65,30.28,10.0,NNE,26.5,33.4,N/A,,Overcast,20,2014-01-28 16:55:00
11:15 AM,41.0,30.2,65,30.28,10.0,NNE,26.5,32.2,N/A,,Overcast,30,2014-01-28 17:15:00
11:35 AM,39.2,32.0,75,30.28,10.0,NNE,27.6,34.5,N/A,,Mostly Cloudy,20,2014-01-28 17:35:00
11:55 AM,39.2,32.0,75,30.30,10.0,NNE,27.6,-,N/A,,Overcast,30,2014-01-28 17:55:00
12:15 PM,39.2,32.0,75,30.30,10.0,NNE,25.3,31.1,N/A,,Overcast,20,2014-01-28 18:15:00
12:35 PM,39.2,32.0,75,30.29,10.0,North,24.2,32.2,N/A,,Overcast,10,2014-01-28 18:35:00
12:55 PM,39.2,32.0,75,30.28,10.0,North,29.9,35.7,N/A,,Overcast,10,2014-01-28 18:55:00
1:15 PM,37.4,32.0,81,30.26,8.0,NNE,29.9,-,N/A,,Overcast,20,2014-01-28 19:15:00
1:35 PM,37.4,33.8,87,30.26,8.0,North,31.1,39.1,N/A,,Overcast,10,2014-01-28 19:35:00
1:55 PM,37.4,33.8,87,30.27,10.0,North,23.0,35.7,N/A,,Overcast,10,2014-01-28 19:55:00
2:15 PM,37.4,33.8,87,30.27,10.0,North,27.6,-,N/A,,Overcast,10,2014-01-28 20:15:00
2:35 PM,37.4,33.8,87,30.27,10.0,North,28.8,-,N/A,,Overcast,10,2014-01-28 20:35:00
2:55 PM,37.4,33.8,87,30.27,3.0,North,29.9,-,N/A,,Overcast,10,2014-01-28 20:55:00
3:15 PM,37.4,33.8,87,30.27,7.0,North,33.4,-,N/A,,Overcast,10,2014-01-28 21:15:00
3:35 PM,35.6,32.0,87,30.28,6.0,NNE,31.1,38.0,N/A,,Haze,20,2014-01-28 21:35:00
3:55 PM,35.6,32.0,87,30.27,3.0,NNE,29.9,39.1,N/A,,Overcast,20,2014-01-28 21:55:00
4:15 PM,35.6,32.0,87,30.27,9.0,NNE,34.5,41.4,N/A,,Overcast,20,2014-01-28 22:15:00
4:35 PM,35.6,30.2,81,30.29,10.0,North,35.7,-,N/A,,Overcast,10,2014-01-28 22:35:00
4:55 PM,35.6,30.2,81,30.29,10.0,NNE,35.7,-,N/A,,Overcast,20,2014-01-28 22:55:00
5:15 PM,35.6,30.2,81,30.31,10.0,North,31.1,38.0,N/A,,Overcast,10,2014-01-28 23:15:00
5:35 PM,35.6,28.4,75,30.31,10.0,North,33.4,-,N/A,,Overcast,10,2014-01-28 23:35:00
5:55 PM,35.6,28.4,75,30.32,10.0,NNE,32.2,-,N/A,,Overcast,20,2014-01-28 23:55:00
6:15 PM,35.6,28.4,75,30.33,10.0,North,34.5,-,N/A,,Overcast,10,2014-01-29 00:15:00
6:35 PM,35.6,26.6,70,30.34,10.0,NNE,34.5,43.7,N/A,,Overcast,20,2014-01-29 00:35:00
6:55 PM,37.4,26.6,65,30.33,10.0,NNE,35.7,42.6,N/A,,Overcast,20,2014-01-29 00:55:00
7:15 PM,37.4,24.8,60,30.34,10.0,NNE,36.8,46.0,N/A,,Overcast,20,2014-01-29 01:15:00
7:35 PM,37.4,24.8,60,30.35,10.0,NNE,33.4,40.3,N/A,,Overcast,20,2014-01-29 01:35:00
7:55 PM,37.4,23.0,56,30.35,10.0,NNE,38.0,44.9,N/A,,Overcast,30,2014-01-29 01:55:00
8:15 PM,37.4,23.0,56,30.36,-9999.0,NNE,35.7,43.7,N/A,,Overcast,20,2014-01-29 02:15:00
8:35 PM,37.4,23.0,56,30.37,10.0,NNE,36.8,43.7,N/A,,Overcast,30,2014-01-29 02:35:00
8:55 PM,37.4,28.4,70,30.37,8.0,NNE,32.2,39.1,N/A,,Overcast,20,2014-01-29 02:55:00
9:15 PM,37.4,26.6,65,30.38,6.0,NNE,31.1,43.7,N/A,,Haze,30,2014-01-29 03:15:00
9:35 PM,37.4,24.8,60,30.39,9.0,NNE,34.5,42.6,N/A,,Overcast,30,2014-01-29 03:35:00
9:55 PM,37.4,24.8,60,30.38,8.0,NNE,35.7,-,N/A,,Overcast,20,2014-01-29 03:55:00
10:15 PM,39.2,24.8,56,30.38,10.0,NNE,32.2,41.4,N/A,,Mostly Cloudy,20,2014-01-29 04:15:00
10:35 PM,39.2,23.0,52,30.39,10.0,NNE,31.1,40.3,N/A,,Unknown,30,2014-01-29 04:35:00
10:55 PM,39.2,24.8,56,30.40,9.0,NNE,29.9,36.8,N/A,,Overcast,30,2014-01-29 04:55:00
11:15 PM,39.2,24.8,56,30.39,10.0,NNE,29.9,36.8,N/A,,Overcast,20,2014-01-29 05:15:00
11:35 PM,39.2,24.8,56,30.38,10.0,NNE,29.9,36.8,N/A,,Mostly Cloudy,20,2014-01-29 05:35:00
11:55 PM,39.2,24.8,56,30.37,10.0,NNE,29.9,-,N/A,,Overcast,30,2014-01-29 05:55:00